ASA580 KSFO-KSEA
Flight info
| Callsign | ASA580 |
|---|---|
| Flight time | N/A |
| Altitude | 38000 |
| Route | TRUKN2 DEDHD RBL LMT HAWKZ8 |
| Aircraft | B738/M-SDGIRW/LB1 |
Departure
| Time | 2026-05-05 19:17 |
|---|---|
| Airport | San Francisco International Airport (KSFO) |
Arrival
| Time | N/A |
|---|---|
| Airport | Seattle–Tacoma International Airport (KSEA) |
| Time | Latitude | Longitude | Altitude | Speed | Heading |
|---|---|---|---|---|---|
| 2026-05-05 18:46 | 37.61243 | -122.38578 | 21 ft | 0 kts | 118° |
| 2026-05-05 18:54 | 37.61245 | -122.38583 | 21 ft | 4 kts | 118° |
| 2026-05-05 18:55 | 37.61258 | -122.38613 | 21 ft | 4 kts | 117° |
| 2026-05-05 18:55 | 37.61270 | -122.38642 | 22 ft | 4 kts | 119° |
| 2026-05-05 18:55 | 37.61283 | -122.38671 | 23 ft | 4 kts | 124° |
| 2026-05-05 18:55 | 37.61300 | -122.38697 | 21 ft | 4 kts | 139° |
| 2026-05-05 18:56 | 37.61321 | -122.38712 | 24 ft | 4 kts | 190° |
| 2026-05-05 18:56 | 37.61327 | -122.38710 | 24 ft | 1 kts | 207° |
| 2026-05-05 18:59 | 37.61319 | -122.38716 | 22 ft | 8 kts | 208° |
| 2026-05-05 18:59 | 37.61255 | -122.38759 | 23 ft | 11 kts | 208° |
| 2026-05-05 18:59 | 37.61188 | -122.38805 | 21 ft | 11 kts | 209° |
| 2026-05-05 18:59 | 37.61123 | -122.38850 | 21 ft | 10 kts | 209° |
| 2026-05-05 19:00 | 37.61061 | -122.38895 | 21 ft | 10 kts | 210° |
| 2026-05-05 19:00 | 37.61001 | -122.38939 | 23 ft | 10 kts | 210° |
| 2026-05-05 19:00 | 37.60943 | -122.38982 | 21 ft | 10 kts | 211° |
| 2026-05-05 19:00 | 37.60885 | -122.39026 | 21 ft | 10 kts | 211° |
| 2026-05-05 19:01 | 37.60828 | -122.39071 | 24 ft | 10 kts | 212° |
| 2026-05-05 19:01 | 37.60804 | -122.39090 | 15 ft | 0 kts | 213° |
| 2026-05-05 19:02 | 37.60804 | -122.39089 | 15 ft | 0 kts | 214° |
| 2026-05-05 19:07 | 37.60811 | -122.39082 | 26 ft | 5 kts | 215° |
| 2026-05-05 19:07 | 37.60804 | -122.39051 | 23 ft | 20 kts | 72° |
| 2026-05-05 19:08 | 37.60829 | -122.38921 | 22 ft | 39 kts | 82° |
| 2026-05-05 19:08 | 37.60836 | -122.38785 | 24 ft | 43 kts | 90° |
| 2026-05-05 19:08 | 37.60830 | -122.38681 | 25 ft | 26 kts | 98° |
| 2026-05-05 19:11 | 37.60826 | -122.38651 | 23 ft | 11 kts | 98° |
| 2026-05-05 19:11 | 37.60793 | -122.38551 | 21 ft | 13 kts | 118° |
| 2026-05-05 19:11 | 37.60713 | -122.38497 | 23 ft | 15 kts | 175° |
| 2026-05-05 19:12 | 37.60635 | -122.38421 | 21 ft | 14 kts | 130° |
| 2026-05-05 19:12 | 37.60554 | -122.38299 | 21 ft | 20 kts | 130° |
| 2026-05-05 19:12 | 37.60504 | -122.38123 | 21 ft | 26 kts | 82° |
| 2026-05-05 19:12 | 37.60570 | -122.37951 | 21 ft | 19 kts | 28° |
| 2026-05-05 19:13 | 37.60707 | -122.37861 | 21 ft | 26 kts | 27° |
| 2026-05-05 19:13 | 37.60868 | -122.37754 | 23 ft | 29 kts | 28° |
| 2026-05-05 19:13 | 37.61059 | -122.37629 | 21 ft | 31 kts | 27° |
| 2026-05-05 19:13 | 37.61242 | -122.37507 | 22 ft | 29 kts | 27° |
| 2026-05-05 19:14 | 37.61415 | -122.37393 | 22 ft | 27 kts | 27° |
| 2026-05-05 19:14 | 37.61553 | -122.37242 | 21 ft | 27 kts | 70° |
| 2026-05-05 19:14 | 37.61517 | -122.37030 | 21 ft | 25 kts | 118° |
| 2026-05-05 19:14 | 37.61420 | -122.36860 | 21 ft | 24 kts | 134° |
| 2026-05-05 19:15 | 37.61322 | -122.36679 | 22 ft | 29 kts | 117° |
| 2026-05-05 19:15 | 37.61221 | -122.36437 | 22 ft | 31 kts | 118° |
| 2026-05-05 19:15 | 37.61120 | -122.36199 | 22 ft | 30 kts | 118° |
| 2026-05-05 19:15 | 37.61056 | -122.35971 | 21 ft | 26 kts | 75° |
| 2026-05-05 19:16 | 37.61174 | -122.35871 | 21 ft | 12 kts | 345° |
| 2026-05-05 19:16 | 37.61232 | -122.35983 | 21 ft | 34 kts | 298° |
| 2026-05-05 19:16 | 37.61497 | -122.36617 | 21 ft | 127 kts | 297° |
| 2026-05-05 19:16 | 37.62021 | -122.37859 | 266 ft | 183 kts | 297° |
| 2026-05-05 19:17 | 37.62631 | -122.39283 | 1497 ft | 181 kts | 304° |
| 2026-05-05 19:17 | 37.63590 | -122.40282 | 2749 ft | 187 kts | 339° |
| 2026-05-05 19:17 | 37.64943 | -122.40301 | 3473 ft | 209 kts | 18° |
| 2026-05-05 19:17 | 37.66145 | -122.39215 | 4260 ft | 219 kts | 51° |
| 2026-05-05 19:18 | 37.66806 | -122.37556 | 5545 ft | 197 kts | 64° |
| 2026-05-05 19:18 | 37.67264 | -122.35977 | 6590 ft | 203 kts | 75° |
| 2026-05-05 19:18 | 37.67523 | -122.34106 | 6837 ft | 230 kts | 74° |
| 2026-05-05 19:18 | 37.67982 | -122.32083 | 7184 ft | 246 kts | 68° |
| 2026-05-05 19:19 | 37.68599 | -122.30051 | 7829 ft | 249 kts | 64° |
| 2026-05-05 19:19 | 37.69297 | -122.28044 | 8537 ft | 249 kts | 62° |
| 2026-05-05 19:19 | 37.70016 | -122.26088 | 9255 ft | 249 kts | 61° |
| 2026-05-05 19:19 | 37.70759 | -122.24110 | 10003 ft | 249 kts | 60° |
| 2026-05-05 19:20 | 37.71729 | -122.22345 | 10639 ft | 244 kts | 37° |
| 2026-05-05 19:20 | 37.72240 | -122.21884 | 10875 ft | 244 kts | 29° |
| 2026-05-05 19:21 | 37.72598 | -122.21634 | 11028 ft | 243 kts | 25° |
| 2026-05-05 19:21 | 37.74210 | -122.20971 | 11650 ft | 245 kts | 11° |
| 2026-05-05 19:21 | 37.75900 | -122.20648 | 12290 ft | 247 kts | 8° |